sensor_id;sensor_type;location;lat;lon;timestamp;P1;durP1;ratioP1;P2;durP2;ratioP2
31037;SDS011;17702;47.590;7.666;2024-03-22T00:00:41;5.30;;;2.70;;
31037;SDS011;17702;47.590;7.666;2024-03-22T00:03:06;7.53;;;3.08;;
31037;SDS011;17702;47.590;7.666;2024-03-22T00:05:32;4.03;;;3.35;;
31037;SDS011;17702;47.590;7.666;2024-03-22T00:07:57;6.78;;;3.47;;
31037;SDS011;17702;47.590;7.666;2024-03-22T00:10:23;7.78;;;3.20;;
31037;SDS011;17702;47.590;7.666;2024-03-22T00:12:49;6.13;;;4.00;;
31037;SDS011;17702;47.590;7.666;2024-03-22T00:15:15;7.22;;;3.50;;
31037;SDS011;17702;47.590;7.666;2024-03-22T00:17:42;7.90;;;4.97;;
31037;SDS011;17702;47.590;7.666;2024-03-22T00:20:08;3.45;;;3.15;;
31037;SDS011;17702;47.590;7.666;2024-03-22T00:22:34;7.10;;;3.05;;
31037;SDS011;17702;47.590;7.666;2024-03-22T00:24:59;6.03;;;3.10;;
31037;SDS011;17702;47.590;7.666;2024-03-22T00:27:25;5.60;;;2.75;;
31037;SDS011;17702;47.590;7.666;2024-03-22T00:29:51;4.28;;;2.97;;
31037;SDS011;17702;47.590;7.666;2024-03-22T00:32:16;3.70;;;2.83;;
31037;SDS011;17702;47.590;7.666;2024-03-22T00:34:42;5.22;;;2.83;;
31037;SDS011;17702;47.590;7.666;2024-03-22T00:37:08;5.20;;;3.15;;
31037;SDS011;17702;47.590;7.666;2024-03-22T00:39:33;6.13;;;3.22;;
31037;SDS011;17702;47.590;7.666;2024-03-22T00:41:59;6.10;;;3.05;;
31037;SDS011;17702;47.590;7.666;2024-03-22T00:44:24;7.38;;;3.65;;
31037;SDS011;17702;47.590;7.666;2024-03-22T00:46:50;4.82;;;3.42;;
31037;SDS011;17702;47.590;7.666;2024-03-22T00:49:16;5.97;;;3.45;;
31037;SDS011;17702;47.590;7.666;2024-03-22T00:51:41;4.15;;;3.20;;
31037;SDS011;17702;47.590;7.666;2024-03-22T00:54:09;3.92;;;3.38;;
31037;SDS011;17702;47.590;7.666;2024-03-22T00:56:34;5.53;;;2.95;;
31037;SDS011;17702;47.590;7.666;2024-03-22T00:59:00;5.50;;;3.80;;
31037;SDS011;17702;47.590;7.666;2024-03-22T01:01:25;4.50;;;3.08;;
31037;SDS011;17702;47.590;7.666;2024-03-22T01:03:51;7.20;;;3.72;;
31037;SDS011;17702;47.590;7.666;2024-03-22T01:06:17;3.90;;;3.50;;
31037;SDS011;17702;47.590;7.666;2024-03-22T01:08:48;5.05;;;3.30;;
31037;SDS011;17702;47.590;7.666;2024-03-22T01:11:14;8.00;;;2.92;;
31037;SDS011;17702;47.590;7.666;2024-03-22T01:13:39;6.38;;;3.38;;
31037;SDS011;17702;47.590;7.666;2024-03-22T01:16:05;9.02;;;3.50;;
31037;SDS011;17702;47.590;7.666;2024-03-22T01:18:34;7.90;;;3.72;;
31037;SDS011;17702;47.590;7.666;2024-03-22T01:21:00;8.75;;;3.95;;
31037;SDS011;17702;47.590;7.666;2024-03-22T01:23:26;6.38;;;3.20;;
31037;SDS011;17702;47.590;7.666;2024-03-22T01:25:52;3.55;;;3.03;;
31037;SDS011;17702;47.590;7.666;2024-03-22T01:28:17;3.15;;;2.95;;
31037;SDS011;17702;47.590;7.666;2024-03-22T01:30:43;9.73;;;8.73;;
31037;SDS011;17702;47.590;7.666;2024-03-22T01:33:09;10.07;;;7.88;;
31037;SDS011;17702;47.590;7.666;2024-03-22T01:35:34;4.53;;;3.15;;
31037;SDS011;17702;47.590;7.666;2024-03-22T01:38:00;3.35;;;2.70;;
31037;SDS011;17702;47.590;7.666;2024-03-22T01:40:25;6.25;;;3.35;;
31037;SDS011;17702;47.590;7.666;2024-03-22T01:42:57;5.65;;;3.10;;
31037;SDS011;17702;47.590;7.666;2024-03-22T01:45:23;8.15;;;3.60;;
31037;SDS011;17702;47.590;7.666;2024-03-22T01:47:52;5.65;;;3.28;;
31037;SDS011;17702;47.590;7.666;2024-03-22T01:50:19;4.00;;;3.30;;
31037;SDS011;17702;47.590;7.666;2024-03-22T01:52:47;4.25;;;3.55;;
31037;SDS011;17702;47.590;7.666;2024-03-22T01:55:13;4.32;;;2.85;;
31037;SDS011;17702;47.590;7.666;2024-03-22T01:57:39;4.97;;;2.80;;
31037;SDS011;17702;47.590;7.666;2024-03-22T02:00:06;9.23;;;3.75;;
31037;SDS011;17702;47.590;7.666;2024-03-22T02:02:33;7.75;;;2.90;;
31037;SDS011;17702;47.590;7.666;2024-03-22T02:04:59;6.90;;;3.03;;
31037;SDS011;17702;47.590;7.666;2024-03-22T02:07:36;4.40;;;2.65;;
31037;SDS011;17702;47.590;7.666;2024-03-22T02:10:01;4.13;;;2.67;;
31037;SDS011;17702;47.590;7.666;2024-03-22T02:12:27;3.35;;;3.05;;
31037;SDS011;17702;47.590;7.666;2024-03-22T02:14:53;7.10;;;3.50;;
31037;SDS011;17702;47.590;7.666;2024-03-22T02:17:22;3.33;;;3.03;;
31037;SDS011;17702;47.590;7.666;2024-03-22T02:19:48;5.82;;;2.42;;
31037;SDS011;17702;47.590;7.666;2024-03-22T02:22:13;5.45;;;2.90;;
31037;SDS011;17702;47.590;7.666;2024-03-22T02:24:39;3.72;;;3.40;;
31037;SDS011;17702;47.590;7.666;2024-03-22T02:27:04;6.00;;;3.58;;
31037;SDS011;17702;47.590;7.666;2024-03-22T02:29:30;5.82;;;3.35;;
31037;SDS011;17702;47.590;7.666;2024-03-22T02:31:55;3.90;;;3.22;;
31037;SDS011;17702;47.590;7.666;2024-03-22T02:34:23;3.47;;;3.25;;
31037;SDS011;17702;47.590;7.666;2024-03-22T02:36:48;4.50;;;3.35;;
31037;SDS011;17702;47.590;7.666;2024-03-22T02:39:14;5.32;;;3.38;;
31037;SDS011;17702;47.590;7.666;2024-03-22T02:41:40;3.85;;;3.22;;
31037;SDS011;17702;47.590;7.666;2024-03-22T02:44:05;5.75;;;3.58;;
31037;SDS011;17702;47.590;7.666;2024-03-22T02:46:31;3.35;;;3.08;;
31037;SDS011;17702;47.590;7.666;2024-03-22T02:48:57;8.43;;;3.22;;
31037;SDS011;17702;47.590;7.666;2024-03-22T02:51:23;4.13;;;3.72;;
31037;SDS011;17702;47.590;7.666;2024-03-22T02:53:48;6.80;;;3.83;;
31037;SDS011;17702;47.590;7.666;2024-03-22T02:56:14;4.65;;;3.40;;
31037;SDS011;17702;47.590;7.666;2024-03-22T02:58:40;8.10;;;3.60;;
31037;SDS011;17702;47.590;7.666;2024-03-22T03:01:05;4.82;;;3.78;;
31037;SDS011;17702;47.590;7.666;2024-03-22T03:03:31;5.57;;;3.40;;
31037;SDS011;17702;47.590;7.666;2024-03-22T03:05:57;4.55;;;3.65;;
31037;SDS011;17702;47.590;7.666;2024-03-22T03:08:22;5.68;;;3.80;;
31037;SDS011;17702;47.590;7.666;2024-03-22T03:10:48;6.20;;;4.07;;
31037;SDS011;17702;47.590;7.666;2024-03-22T03:13:13;6.25;;;3.72;;
31037;SDS011;17702;47.590;7.666;2024-03-22T03:15:39;4.50;;;3.45;;
31037;SDS011;17702;47.590;7.666;2024-03-22T03:18:05;6.88;;;3.92;;
31037;SDS011;17702;47.590;7.666;2024-03-22T03:20:30;5.13;;;3.90;;
31037;SDS011;17702;47.590;7.666;2024-03-22T03:22:56;3.85;;;3.58;;
31037;SDS011;17702;47.590;7.666;2024-03-22T03:25:24;6.65;;;3.90;;
31037;SDS011;17702;47.590;7.666;2024-03-22T03:27:51;10.32;;;3.75;;
31037;SDS011;17702;47.590;7.666;2024-03-22T03:30:17;6.25;;;3.65;;
31037;SDS011;17702;47.590;7.666;2024-03-22T03:32:42;8.60;;;4.03;;
31037;SDS011;17702;47.590;7.666;2024-03-22T03:35:08;6.22;;;4.30;;
31037;SDS011;17702;47.590;7.666;2024-03-22T03:37:33;5.18;;;3.60;;
31037;SDS011;17702;47.590;7.666;2024-03-22T03:39:59;10.80;;;4.22;;
31037;SDS011;17702;47.590;7.666;2024-03-22T03:42:25;6.53;;;4.40;;
31037;SDS011;17702;47.590;7.666;2024-03-22T03:44:50;6.68;;;4.45;;
31037;SDS011;17702;47.590;7.666;2024-03-22T03:47:16;9.68;;;4.03;;
31037;SDS011;17702;47.590;7.666;2024-03-22T03:49:42;6.28;;;3.97;;
31037;SDS011;17702;47.590;7.666;2024-03-22T03:52:09;7.50;;;3.78;;
31037;SDS011;17702;47.590;7.666;2024-03-22T03:54:35;4.88;;;3.55;;
31037;SDS011;17702;47.590;7.666;2024-03-22T03:57:00;6.47;;;4.00;;
31037;SDS011;17702;47.590;7.666;2024-03-22T03:59:26;12.30;;;3.72;;
31037;SDS011;17702;47.590;7.666;2024-03-22T04:01:52;6.28;;;3.90;;
31037;SDS011;17702;47.590;7.666;2024-03-22T04:04:17;5.97;;;3.72;;
31037;SDS011;17702;47.590;7.666;2024-03-22T04:06:43;8.80;;;3.60;;
31037;SDS011;17702;47.590;7.666;2024-03-22T04:09:09;8.82;;;4.40;;
31037;SDS011;17702;47.590;7.666;2024-03-22T04:11:35;3.78;;;3.47;;
31037;SDS011;17702;47.590;7.666;2024-03-22T04:14:00;10.15;;;4.38;;
31037;SDS011;17702;47.590;7.666;2024-03-22T04:16:26;5.80;;;3.80;;
31037;SDS011;17702;47.590;7.666;2024-03-22T04:18:52;4.00;;;3.70;;
31037;SDS011;17702;47.590;7.666;2024-03-22T04:21:18;4.53;;;3.83;;
31037;SDS011;17702;47.590;7.666;2024-03-22T04:23:43;6.88;;;4.45;;
31037;SDS011;17702;47.590;7.666;2024-03-22T04:26:09;5.07;;;4.60;;
31037;SDS011;17702;47.590;7.666;2024-03-22T04:28:35;5.75;;;4.05;;
31037;SDS011;17702;47.590;7.666;2024-03-22T04:31:02;4.03;;;3.50;;
31037;SDS011;17702;47.590;7.666;2024-03-22T04:33:29;3.88;;;3.45;;
31037;SDS011;17702;47.590;7.666;2024-03-22T04:35:55;5.70;;;4.88;;
31037;SDS011;17702;47.590;7.666;2024-03-22T04:38:22;4.65;;;3.47;;
31037;SDS011;17702;47.590;7.666;2024-03-22T04:40:48;8.13;;;4.25;;
31037;SDS011;17702;47.590;7.666;2024-03-22T04:43:14;5.70;;;4.07;;
31037;SDS011;17702;47.590;7.666;2024-03-22T04:45:41;7.25;;;4.05;;
31037;SDS011;17702;47.590;7.666;2024-03-22T04:48:13;9.18;;;3.97;;
31037;SDS011;17702;47.590;7.666;2024-03-22T04:50:42;9.95;;;4.32;;
31037;SDS011;17702;47.590;7.666;2024-03-22T04:53:08;5.93;;;4.28;;
31037;SDS011;17702;47.590;7.666;2024-03-22T04:55:33;6.15;;;3.95;;
31037;SDS011;17702;47.590;7.666;2024-03-22T04:57:59;7.22;;;4.22;;
31037;SDS011;17702;47.590;7.666;2024-03-22T05:00:25;3.90;;;3.60;;
31037;SDS011;17702;47.590;7.666;2024-03-22T05:02:51;3.88;;;3.50;;
31037;SDS011;17702;47.590;7.666;2024-03-22T05:05:17;4.13;;;3.42;;
31037;SDS011;17702;47.590;7.666;2024-03-22T05:07:43;4.10;;;3.70;;
31037;SDS011;17702;47.590;7.666;2024-03-22T05:10:09;10.75;;;3.90;;
31037;SDS011;17702;47.590;7.666;2024-03-22T05:12:35;7.88;;;4.00;;
31037;SDS011;17702;47.590;7.666;2024-03-22T05:15:01;5.32;;;4.05;;
31037;SDS011;17702;47.590;7.666;2024-03-22T05:17:28;5.55;;;4.00;;
31037;SDS011;17702;47.590;7.666;2024-03-22T05:19:54;4.80;;;4.28;;
31037;SDS011;17702;47.590;7.666;2024-03-22T05:22:20;6.78;;;3.90;;
31037;SDS011;17702;47.590;7.666;2024-03-22T05:24:47;5.18;;;4.20;;
31037;SDS011;17702;47.590;7.666;2024-03-22T05:27:12;8.07;;;3.90;;
31037;SDS011;17702;47.590;7.666;2024-03-22T05:29:38;4.75;;;3.92;;
31037;SDS011;17702;47.590;7.666;2024-03-22T05:32:04;4.43;;;4.10;;
31037;SDS011;17702;47.590;7.666;2024-03-22T05:34:30;5.60;;;4.13;;
31037;SDS011;17702;47.590;7.666;2024-03-22T05:36:56;7.15;;;3.72;;
31037;SDS011;17702;47.590;7.666;2024-03-22T05:39:22;5.30;;;4.00;;
31037;SDS011;17702;47.590;7.666;2024-03-22T05:41:47;5.35;;;3.88;;
31037;SDS011;17702;47.590;7.666;2024-03-22T05:44:13;8.07;;;3.90;;
31037;SDS011;17702;47.590;7.666;2024-03-22T05:46:38;8.07;;;4.35;;
31037;SDS011;17702;47.590;7.666;2024-03-22T05:49:04;4.25;;;3.88;;
31037;SDS011;17702;47.590;7.666;2024-03-22T05:51:29;6.05;;;3.72;;
31037;SDS011;17702;47.590;7.666;2024-03-22T05:53:56;7.03;;;4.30;;
31037;SDS011;17702;47.590;7.666;2024-03-22T05:56:22;8.70;;;4.22;;
31037;SDS011;17702;47.590;7.666;2024-03-22T05:58:48;4.78;;;4.40;;
31037;SDS011;17702;47.590;7.666;2024-03-22T06:01:13;4.45;;;4.07;;
31037;SDS011;17702;47.590;7.666;2024-03-22T06:03:39;6.78;;;3.95;;
31037;SDS011;17702;47.590;7.666;2024-03-22T06:06:05;8.23;;;4.43;;
31037;SDS011;17702;47.590;7.666;2024-03-22T06:08:30;6.40;;;4.40;;
31037;SDS011;17702;47.590;7.666;2024-03-22T06:11:04;6.15;;;4.32;;
31037;SDS011;17702;47.590;7.666;2024-03-22T06:13:32;8.52;;;4.10;;
31037;SDS011;17702;47.590;7.666;2024-03-22T06:15:58;4.95;;;3.88;;
31037;SDS011;17702;47.590;7.666;2024-03-22T06:18:23;5.72;;;4.85;;
31037;SDS011;17702;47.590;7.666;2024-03-22T06:20:49;4.22;;;3.97;;
31037;SDS011;17702;47.590;7.666;2024-03-22T06:23:15;11.00;;;5.13;;
31037;SDS011;17702;47.590;7.666;2024-03-22T06:25:40;6.60;;;4.57;;
31037;SDS011;17702;47.590;7.666;2024-03-22T06:28:06;12.05;;;4.57;;
31037;SDS011;17702;47.590;7.666;2024-03-22T06:30:31;6.60;;;4.53;;
31037;SDS011;17702;47.590;7.666;2024-03-22T06:32:57;6.28;;;4.40;;
31037;SDS011;17702;47.590;7.666;2024-03-22T06:35:22;7.30;;;4.70;;
31037;SDS011;17702;47.590;7.666;2024-03-22T06:37:48;7.07;;;4.78;;
31037;SDS011;17702;47.590;7.666;2024-03-22T06:40:14;6.40;;;4.80;;
31037;SDS011;17702;47.590;7.666;2024-03-22T06:42:40;5.43;;;4.72;;
31037;SDS011;17702;47.590;7.666;2024-03-22T06:45:06;7.32;;;4.70;;
31037;SDS011;17702;47.590;7.666;2024-03-22T06:47:32;6.40;;;4.15;;
31037;SDS011;17702;47.590;7.666;2024-03-22T06:49:58;6.15;;;4.10;;
31037;SDS011;17702;47.590;7.666;2024-03-22T06:52:23;8.48;;;4.43;;
31037;SDS011;17702;47.590;7.666;2024-03-22T06:54:49;7.00;;;4.38;;
31037;SDS011;17702;47.590;7.666;2024-03-22T06:57:14;7.80;;;4.93;;
31037;SDS011;17702;47.590;7.666;2024-03-22T06:59:40;9.27;;;5.22;;
31037;SDS011;17702;47.590;7.666;2024-03-22T07:02:06;7.80;;;4.78;;
31037;SDS011;17702;47.590;7.666;2024-03-22T07:04:34;4.80;;;4.40;;
31037;SDS011;17702;47.590;7.666;2024-03-22T07:07:00;7.30;;;5.03;;
31037;SDS011;17702;47.590;7.666;2024-03-22T07:09:25;6.72;;;4.93;;
31037;SDS011;17702;47.590;7.666;2024-03-22T07:11:53;6.35;;;4.70;;
31037;SDS011;17702;47.590;7.666;2024-03-22T07:14:19;8.23;;;4.68;;
31037;SDS011;17702;47.590;7.666;2024-03-22T07:16:44;5.93;;;4.45;;
31037;SDS011;17702;47.590;7.666;2024-03-22T07:19:11;5.13;;;4.60;;
31037;SDS011;17702;47.590;7.666;2024-03-22T07:21:36;5.75;;;4.95;;
31037;SDS011;17702;47.590;7.666;2024-03-22T07:24:03;5.15;;;4.70;;
31037;SDS011;17702;47.590;7.666;2024-03-22T07:26:29;5.13;;;4.53;;
31037;SDS011;17702;47.590;7.666;2024-03-22T07:28:54;6.45;;;4.18;;
31037;SDS011;17702;47.590;7.666;2024-03-22T07:31:20;11.85;;;4.35;;
31037;SDS011;17702;47.590;7.666;2024-03-22T07:33:46;7.03;;;4.35;;
31037;SDS011;17702;47.590;7.666;2024-03-22T07:36:11;7.50;;;4.22;;
31037;SDS011;17702;47.590;7.666;2024-03-22T07:38:37;7.25;;;4.15;;
31037;SDS011;17702;47.590;7.666;2024-03-22T07:41:06;4.75;;;4.35;;
31037;SDS011;17702;47.590;7.666;2024-03-22T07:43:32;5.22;;;4.55;;
31037;SDS011;17702;47.590;7.666;2024-03-22T07:45:57;7.40;;;5.10;;
31037;SDS011;17702;47.590;7.666;2024-03-22T07:48:23;4.60;;;4.18;;
31037;SDS011;17702;47.590;7.666;2024-03-22T07:50:55;5.13;;;4.28;;
31037;SDS011;17702;47.590;7.666;2024-03-22T07:53:22;8.18;;;4.72;;
31037;SDS011;17702;47.590;7.666;2024-03-22T07:55:47;8.00;;;4.60;;
31037;SDS011;17702;47.590;7.666;2024-03-22T07:58:13;9.70;;;5.18;;
31037;SDS011;17702;47.590;7.666;2024-03-22T08:00:38;5.47;;;4.50;;
31037;SDS011;17702;47.590;7.666;2024-03-22T08:03:04;11.98;;;4.75;;
31037;SDS011;17702;47.590;7.666;2024-03-22T08:05:30;5.50;;;4.85;;
31037;SDS011;17702;47.590;7.666;2024-03-22T08:07:55;6.28;;;4.15;;
31037;SDS011;17702;47.590;7.666;2024-03-22T08:10:21;5.82;;;4.65;;
31037;SDS011;17702;47.590;7.666;2024-03-22T08:12:48;10.45;;;4.28;;
31037;SDS011;17702;47.590;7.666;2024-03-22T08:15:14;8.32;;;4.22;;
31037;SDS011;17702;47.590;7.666;2024-03-22T08:17:40;4.90;;;4.30;;
31037;SDS011;17702;47.590;7.666;2024-03-22T08:20:06;6.32;;;3.83;;
31037;SDS011;17702;47.590;7.666;2024-03-22T08:22:32;11.23;;;4.28;;
31037;SDS011;17702;47.590;7.666;2024-03-22T08:24:57;4.97;;;3.78;;
31037;SDS011;17702;47.590;7.666;2024-03-22T08:27:23;4.25;;;3.85;;
31037;SDS011;17702;47.590;7.666;2024-03-22T08:29:49;5.18;;;4.00;;
31037;SDS011;17702;47.590;7.666;2024-03-22T08:32:15;7.60;;;4.68;;
31037;SDS011;17702;47.590;7.666;2024-03-22T08:34:41;7.32;;;3.90;;
31037;SDS011;17702;47.590;7.666;2024-03-22T08:37:06;7.60;;;3.55;;
31037;SDS011;17702;47.590;7.666;2024-03-22T08:39:32;5.15;;;3.60;;
31037;SDS011;17702;47.590;7.666;2024-03-22T08:41:58;6.72;;;3.85;;
31037;SDS011;17702;47.590;7.666;2024-03-22T08:44:23;6.72;;;4.10;;
31037;SDS011;17702;47.590;7.666;2024-03-22T08:46:49;23.13;;;4.65;;
31037;SDS011;17702;47.590;7.666;2024-03-22T08:49:15;15.05;;;13.07;;
31037;SDS011;17702;47.590;7.666;2024-03-22T08:51:40;14.80;;;12.02;;
31037;SDS011;17702;47.590;7.666;2024-03-22T08:54:06;7.22;;;4.07;;
31037;SDS011;17702;47.590;7.666;2024-03-22T08:56:32;19.27;;;14.57;;
31037;SDS011;17702;47.590;7.666;2024-03-22T08:58:58;7.10;;;3.83;;
31037;SDS011;17702;47.590;7.666;2024-03-22T09:01:24;5.97;;;3.53;;
31037;SDS011;17702;47.590;7.666;2024-03-22T09:03:50;4.28;;;3.50;;
31037;SDS011;17702;47.590;7.666;2024-03-22T09:06:16;4.50;;;3.58;;
31037;SDS011;17702;47.590;7.666;2024-03-22T09:08:41;10.32;;;3.33;;
31037;SDS011;17702;47.590;7.666;2024-03-22T09:11:07;4.00;;;3.15;;
31037;SDS011;17702;47.590;7.666;2024-03-22T09:13:32;4.18;;;3.38;;
31037;SDS011;17702;47.590;7.666;2024-03-22T09:16:00;3.10;;;2.80;;
31037;SDS011;17702;47.590;7.666;2024-03-22T09:18:26;5.55;;;2.67;;
31037;SDS011;17702;47.590;7.666;2024-03-22T09:20:52;5.93;;;2.58;;
31037;SDS011;17702;47.590;7.666;2024-03-22T09:23:18;4.30;;;2.63;;
31037;SDS011;17702;47.590;7.666;2024-03-22T09:25:45;4.50;;;2.90;;
31037;SDS011;17702;47.590;7.666;2024-03-22T09:28:11;14.68;;;9.05;;
31037;SDS011;17702;47.590;7.666;2024-03-22T09:30:40;29.85;;;22.23;;
31037;SDS011;17702;47.590;7.666;2024-03-22T09:33:06;3.97;;;2.50;;
31037;SDS011;17702;47.590;7.666;2024-03-22T09:35:35;4.60;;;2.30;;
31037;SDS011;17702;47.590;7.666;2024-03-22T09:38:01;5.75;;;2.85;;
31037;SDS011;17702;47.590;7.666;2024-03-22T09:40:27;3.83;;;2.90;;
31037;SDS011;17702;47.590;7.666;2024-03-22T09:42:58;3.10;;;2.80;;
31037;SDS011;17702;47.590;7.666;2024-03-22T09:45:29;2.92;;;2.47;;
31037;SDS011;17702;47.590;7.666;2024-03-22T09:47:57;2.65;;;2.42;;
31037;SDS011;17702;47.590;7.666;2024-03-22T09:50:23;2.60;;;2.40;;
31037;SDS011;17702;47.590;7.666;2024-03-22T09:52:49;2.92;;;2.63;;
31037;SDS011;17702;47.590;7.666;2024-03-22T09:55:18;7.45;;;3.17;;
31037;SDS011;17702;47.590;7.666;2024-03-22T09:57:48;4.95;;;3.42;;
31037;SDS011;17702;47.590;7.666;2024-03-22T10:00:19;8.25;;;3.10;;
31037;SDS011;17702;47.590;7.666;2024-03-22T10:02:46;4.60;;;2.92;;
31037;SDS011;17702;47.590;7.666;2024-03-22T10:05:13;7.10;;;2.63;;
31037;SDS011;17702;47.590;7.666;2024-03-22T10:07:39;3.25;;;2.67;;
31037;SDS011;17702;47.590;7.666;2024-03-22T10:10:05;3.95;;;2.58;;
31037;SDS011;17702;47.590;7.666;2024-03-22T10:12:32;6.00;;;3.13;;
31037;SDS011;17702;47.590;7.666;2024-03-22T10:14:58;5.20;;;2.60;;
31037;SDS011;17702;47.590;7.666;2024-03-22T10:17:26;2.75;;;2.50;;
31037;SDS011;17702;47.590;7.666;2024-03-22T10:19:51;4.55;;;2.22;;
31037;SDS011;17702;47.590;7.666;2024-03-22T10:22:17;2.72;;;2.50;;
31037;SDS011;17702;47.590;7.666;2024-03-22T10:24:43;3.92;;;3.17;;
31037;SDS011;17702;47.590;7.666;2024-03-22T10:27:09;5.13;;;2.75;;
31037;SDS011;17702;47.590;7.666;2024-03-22T10:29:35;6.68;;;2.60;;
31037;SDS011;17702;47.590;7.666;2024-03-22T10:32:01;4.25;;;2.22;;
31037;SDS011;17702;47.590;7.666;2024-03-22T10:34:27;5.05;;;3.00;;
31037;SDS011;17702;47.590;7.666;2024-03-22T10:36:55;8.10;;;2.50;;
31037;SDS011;17702;47.590;7.666;2024-03-22T10:39:23;4.90;;;3.10;;
31037;SDS011;17702;47.590;7.666;2024-03-22T10:41:49;3.38;;;2.08;;
31037;SDS011;17702;47.590;7.666;2024-03-22T10:44:15;4.75;;;2.15;;
31037;SDS011;17702;47.590;7.666;2024-03-22T10:46:47;5.07;;;2.00;;
31037;SDS011;17702;47.590;7.666;2024-03-22T10:49:20;3.65;;;2.05;;
31037;SDS011;17702;47.590;7.666;2024-03-22T10:51:46;4.45;;;3.08;;
31037;SDS011;17702;47.590;7.666;2024-03-22T10:54:19;2.03;;;1.63;;
31037;SDS011;17702;47.590;7.666;2024-03-22T10:56:47;2.38;;;1.80;;
31037;SDS011;17702;47.590;7.666;2024-03-22T10:59:21;2.30;;;2.10;;
31037;SDS011;17702;47.590;7.666;2024-03-22T11:01:48;2.15;;;1.77;;
31037;SDS011;17702;47.590;7.666;2024-03-22T11:04:15;6.70;;;2.88;;
31037;SDS011;17702;47.590;7.666;2024-03-22T11:06:56;3.37;;;2.50;;
31037;SDS011;17702;47.590;7.666;2024-03-22T11:09:25;4.90;;;2.10;;
31037;SDS011;17702;47.590;7.666;2024-03-22T11:11:52;4.03;;;1.67;;
31037;SDS011;17702;47.590;7.666;2024-03-22T11:14:19;4.68;;;1.58;;
31037;SDS011;17702;47.590;7.666;2024-03-22T11:16:50;7.72;;;1.73;;
31037;SDS011;17702;47.590;7.666;2024-03-22T11:19:16;4.60;;;1.80;;
31037;SDS011;17702;47.590;7.666;2024-03-22T11:21:42;2.05;;;0.90;;
31037;SDS011;17702;47.590;7.666;2024-03-22T11:24:08;1.73;;;1.10;;
31037;SDS011;17702;47.590;7.666;2024-03-22T11:26:35;2.03;;;0.85;;
31037;SDS011;17702;47.590;7.666;2024-03-22T11:29:00;1.42;;;0.90;;
31037;SDS011;17702;47.590;7.666;2024-03-22T11:31:26;5.55;;;2.03;;
31037;SDS011;17702;47.590;7.666;2024-03-22T11:33:52;3.47;;;1.70;;
31037;SDS011;17702;47.590;7.666;2024-03-22T11:36:18;3.95;;;1.25;;
31037;SDS011;17702;47.590;7.666;2024-03-22T11:38:44;2.65;;;0.90;;
31037;SDS011;17702;47.590;7.666;2024-03-22T11:41:10;1.20;;;0.98;;
31037;SDS011;17702;47.590;7.666;2024-03-22T11:43:37;1.73;;;1.17;;
31037;SDS011;17702;47.590;7.666;2024-03-22T11:46:03;2.20;;;1.10;;
31037;SDS011;17702;47.590;7.666;2024-03-22T11:48:29;2.00;;;1.08;;
31037;SDS011;17702;47.590;7.666;2024-03-22T11:50:54;1.08;;;0.90;;
31037;SDS011;17702;47.590;7.666;2024-03-22T11:53:21;1.13;;;1.00;;
31037;SDS011;17702;47.590;7.666;2024-03-22T11:55:48;4.68;;;1.02;;
31037;SDS011;17702;47.590;7.666;2024-03-22T11:58:14;1.58;;;0.95;;
31037;SDS011;17702;47.590;7.666;2024-03-22T12:00:42;1.92;;;1.30;;
31037;SDS011;17702;47.590;7.666;2024-03-22T12:03:07;2.03;;;1.23;;
31037;SDS011;17702;47.590;7.666;2024-03-22T12:05:34;2.63;;;0.98;;
31037;SDS011;17702;47.590;7.666;2024-03-22T12:08:00;2.17;;;0.60;;
31037;SDS011;17702;47.590;7.666;2024-03-22T12:10:25;3.90;;;1.05;;
31037;SDS011;17702;47.590;7.666;2024-03-22T12:12:51;1.10;;;0.95;;
31037;SDS011;17702;47.590;7.666;2024-03-22T12:15:18;2.85;;;1.15;;
31037;SDS011;17702;47.590;7.666;2024-03-22T12:17:44;3.17;;;1.10;;
31037;SDS011;17702;47.590;7.666;2024-03-22T12:20:10;3.22;;;1.00;;
31037;SDS011;17702;47.590;7.666;2024-03-22T12:22:35;1.52;;;0.90;;
31037;SDS011;17702;47.590;7.666;2024-03-22T12:25:01;0.95;;;0.70;;
31037;SDS011;17702;47.590;7.666;2024-03-22T12:27:29;1.10;;;0.90;;
31037;SDS011;17702;47.590;7.666;2024-03-22T12:29:54;2.28;;;1.08;;
31037;SDS011;17702;47.590;7.666;2024-03-22T12:32:20;1.85;;;0.65;;
31037;SDS011;17702;47.590;7.666;2024-03-22T12:34:46;1.25;;;0.60;;
31037;SDS011;17702;47.590;7.666;2024-03-22T12:37:11;1.88;;;0.68;;
31037;SDS011;17702;47.590;7.666;2024-03-22T12:39:38;1.00;;;0.85;;
31037;SDS011;17702;47.590;7.666;2024-03-22T12:42:04;1.00;;;0.60;;
31037;SDS011;17702;47.590;7.666;2024-03-22T12:44:31;1.85;;;0.90;;
31037;SDS011;17702;47.590;7.666;2024-03-22T12:46:56;0.63;;;0.63;;
31037;SDS011;17702;47.590;7.666;2024-03-22T12:49:22;1.33;;;0.60;;
31037;SDS011;17702;47.590;7.666;2024-03-22T12:51:47;1.42;;;0.82;;
31037;SDS011;17702;47.590;7.666;2024-03-22T12:54:13;3.17;;;1.00;;
31037;SDS011;17702;47.590;7.666;2024-03-22T12:56:40;1.67;;;0.60;;
31037;SDS011;17702;47.590;7.666;2024-03-22T12:59:05;1.23;;;0.63;;
31037;SDS011;17702;47.590;7.666;2024-03-22T13:01:32;3.08;;;0.70;;
31037;SDS011;17702;47.590;7.666;2024-03-22T13:03:58;2.00;;;0.60;;
31037;SDS011;17702;47.590;7.666;2024-03-22T13:06:23;1.20;;;0.65;;
31037;SDS011;17702;47.590;7.666;2024-03-22T13:08:49;3.08;;;0.95;;
31037;SDS011;17702;47.590;7.666;2024-03-22T13:11:15;1.13;;;0.68;;
31037;SDS011;17702;47.590;7.666;2024-03-22T13:13:42;0.80;;;0.45;;
31037;SDS011;17702;47.590;7.666;2024-03-22T13:16:08;1.60;;;0.70;;
31037;SDS011;17702;47.590;7.666;2024-03-22T13:18:36;9.40;;;1.00;;
31037;SDS011;17702;47.590;7.666;2024-03-22T13:21:02;1.98;;;0.57;;
31037;SDS011;17702;47.590;7.666;2024-03-22T13:23:30;2.05;;;0.65;;
31037;SDS011;17702;47.590;7.666;2024-03-22T13:25:55;5.07;;;0.80;;
31037;SDS011;17702;47.590;7.666;2024-03-22T13:28:23;1.13;;;0.40;;
31037;SDS011;17702;47.590;7.666;2024-03-22T13:30:49;0.80;;;0.50;;
31037;SDS011;17702;47.590;7.666;2024-03-22T13:33:33;1.67;;;0.60;;
31037;SDS011;17702;47.590;7.666;2024-03-22T13:35:59;1.25;;;0.80;;
31037;SDS011;17702;47.590;7.666;2024-03-22T13:38:26;3.13;;;1.00;;
31037;SDS011;17702;47.590;7.666;2024-03-22T13:40:58;1.48;;;0.70;;
31037;SDS011;17702;47.590;7.666;2024-03-22T13:43:25;0.60;;;0.50;;
31037;SDS011;17702;47.590;7.666;2024-03-22T13:45:52;1.45;;;0.70;;
31037;SDS011;17702;47.590;7.666;2024-03-22T13:48:22;2.38;;;0.60;;
31037;SDS011;17702;47.590;7.666;2024-03-22T13:50:52;1.48;;;0.70;;
31037;SDS011;17702;47.590;7.666;2024-03-22T13:53:21;1.48;;;0.60;;
31037;SDS011;17702;47.590;7.666;2024-03-22T13:55:48;1.13;;;0.68;;
31037;SDS011;17702;47.590;7.666;2024-03-22T13:58:14;0.60;;;0.55;;
31037;SDS011;17702;47.590;7.666;2024-03-22T14:00:39;2.55;;;1.30;;
31037;SDS011;17702;47.590;7.666;2024-03-22T14:03:05;0.80;;;0.60;;
31037;SDS011;17702;47.590;7.666;2024-03-22T14:05:31;1.85;;;0.88;;
31037;SDS011;17702;47.590;7.666;2024-03-22T14:07:58;3.28;;;0.93;;
31037;SDS011;17702;47.590;7.666;2024-03-22T14:10:24;2.03;;;0.70;;
31037;SDS011;17702;47.590;7.666;2024-03-22T14:12:51;1.50;;;0.93;;
31037;SDS011;17702;47.590;7.666;2024-03-22T14:15:18;1.88;;;0.75;;
31037;SDS011;17702;47.590;7.666;2024-03-22T14:17:43;2.55;;;1.00;;
31037;SDS011;17702;47.590;7.666;2024-03-22T14:20:09;0.98;;;0.70;;
31037;SDS011;17702;47.590;7.666;2024-03-22T14:22:40;1.45;;;0.70;;
31037;SDS011;17702;47.590;7.666;2024-03-22T14:25:09;3.00;;;0.80;;
31037;SDS011;17702;47.590;7.666;2024-03-22T14:27:35;1.77;;;1.40;;
31037;SDS011;17702;47.590;7.666;2024-03-22T14:30:01;2.92;;;1.15;;
31037;SDS011;17702;47.590;7.666;2024-03-22T14:32:33;2.38;;;0.95;;
31037;SDS011;17702;47.590;7.666;2024-03-22T14:35:00;2.13;;;0.68;;
31037;SDS011;17702;47.590;7.666;2024-03-22T14:37:26;1.77;;;0.90;;
31037;SDS011;17702;47.590;7.666;2024-03-22T14:39:52;1.50;;;0.80;;
31037;SDS011;17702;47.590;7.666;2024-03-22T14:42:17;1.08;;;0.70;;